createdAt,value
2022-08-11T00:00:34.652Z,2.70
2022-08-11T00:03:20.914Z,2.60
2022-08-11T00:06:06.737Z,2.60
2022-08-11T00:08:53.817Z,2.55
2022-08-11T00:11:51.176Z,2.40
2022-08-11T00:14:37.757Z,2.60
2022-08-11T00:17:28.176Z,3.17
2022-08-11T00:20:16.973Z,2.80
2022-08-11T00:23:09.807Z,2.65
2022-08-11T00:25:56.149Z,2.42
2022-08-11T00:28:42.197Z,2.30
2022-08-11T00:31:31.851Z,2.42
2022-08-11T00:34:21.810Z,2.45
2022-08-11T00:37:12.119Z,2.70
2022-08-11T00:39:58.454Z,2.42
2022-08-11T00:43:01.891Z,2.35
2022-08-11T00:46:08.991Z,2.63
2022-08-11T00:49:13.246Z,2.95
2022-08-11T00:52:22.776Z,2.50
2022-08-11T00:55:31.006Z,2.40
2022-08-11T00:58:52.119Z,2.78
2022-08-11T01:01:37.702Z,3.15
2022-08-11T01:04:57.052Z,2.50
2022-08-11T01:08:15.756Z,2.20
2022-08-11T01:11:14.070Z,2.75
2022-08-11T01:14:33.569Z,2.50
2022-08-11T01:17:48.020Z,2.47
2022-08-11T01:20:59.786Z,2.55
2022-08-11T01:24:21.035Z,2.60
2022-08-11T01:27:19.779Z,3.15
2022-08-11T01:30:48.557Z,2.90
2022-08-11T01:33:52.909Z,2.83
2022-08-11T01:36:59.737Z,2.72
2022-08-11T01:40:04.343Z,2.80
2022-08-11T01:43:32.834Z,2.78
2022-08-11T01:46:36.631Z,2.70
2022-08-11T01:50:02.913Z,3.00
2022-08-11T01:53:00.976Z,2.75
2022-08-11T01:56:10.393Z,2.60
2022-08-11T01:59:14.695Z,3.35
2022-08-11T02:02:21.628Z,2.60
2022-08-11T02:05:11.230Z,2.33
2022-08-11T02:08:19.195Z,2.80
2022-08-11T02:11:35.310Z,2.72
2022-08-11T02:14:59.949Z,2.75
2022-08-11T02:18:03.912Z,3.05
2022-08-11T02:21:15.774Z,2.88
2022-08-11T02:24:15.090Z,2.63
2022-08-11T02:27:07.868Z,2.72
2022-08-11T02:30:05.073Z,2.95
2022-08-11T02:33:24.652Z,3.17
2022-08-11T02:36:36.693Z,2.85
2022-08-11T02:39:28.490Z,3.00
2022-08-11T02:42:32.648Z,3.17
2022-08-11T02:45:56.527Z,3.15
2022-08-11T02:49:26.534Z,3.20
2022-08-11T02:52:14.821Z,3.28
2022-08-11T02:55:48.925Z,3.63
2022-08-11T02:58:44.147Z,3.28
2022-08-11T03:01:50.378Z,3.30
2022-08-11T03:05:20.915Z,3.47
2022-08-11T03:08:31.525Z,3.15
2022-08-11T03:12:10.217Z,3.38
2022-08-11T03:15:48.161Z,3.60
2022-08-11T03:18:57.948Z,3.75
2022-08-11T03:22:07.401Z,3.45
2022-08-11T03:25:00.569Z,3.47
2022-08-11T03:28:09.247Z,3.60
2022-08-11T03:31:24.722Z,3.33
2022-08-11T03:34:16.335Z,3.40
2022-08-11T03:37:50.957Z,3.20
2022-08-11T03:42:01.133Z,3.45
2022-08-11T03:44:43.558Z,3.58
2022-08-11T03:47:55.095Z,4.05
2022-08-11T03:51:09.790Z,4.45
2022-08-11T03:54:16.259Z,4.05
2022-08-11T03:57:23.157Z,4.00
2022-08-11T04:00:25.977Z,3.97
2022-08-11T04:03:31.349Z,4.10
2022-08-11T04:07:10.882Z,3.75
2022-08-11T04:10:36.950Z,4.45
2022-08-11T04:13:53.537Z,4.30
2022-08-11T04:16:46.912Z,4.63
2022-08-11T04:20:01.967Z,4.20
2022-08-11T04:22:48.845Z,4.63
2022-08-11T04:26:16.096Z,4.00
2022-08-11T04:29:35.951Z,4.35
2022-08-11T04:32:59.005Z,4.40
2022-08-11T04:35:55.636Z,4.43
2022-08-11T04:39:05.976Z,5.32
2022-08-11T04:42:12.829Z,4.68
2022-08-11T04:44:58.524Z,4.93
2022-08-11T04:48:25.119Z,4.70
2022-08-11T04:51:51.132Z,4.78
2022-08-11T04:55:25.580Z,4.32
2022-08-11T04:58:32.285Z,4.15
2022-08-11T05:01:37.600Z,4.30
2022-08-11T05:05:10.719Z,4.07
2022-08-11T05:08:29.383Z,4.32
2022-08-11T05:11:45.905Z,4.65
2022-08-11T05:14:54.057Z,4.35
2022-08-11T05:18:17.485Z,4.53
2022-08-11T05:21:28.675Z,3.78
2022-08-11T05:24:40.857Z,4.25
2022-08-11T05:27:58.157Z,4.10
2022-08-11T05:31:04.443Z,4.30
2022-08-11T05:34:11.365Z,4.80
2022-08-11T05:37:25.135Z,4.60
2022-08-11T05:40:34.264Z,4.80
2022-08-11T05:43:38.712Z,4.70
2022-08-11T05:47:03.888Z,4.82
2022-08-11T05:50:13.772Z,5.00
2022-08-11T05:53:21.633Z,5.00
2022-08-11T05:56:20.199Z,4.45
2022-08-11T05:59:06.137Z,4.05
2022-08-11T06:01:52.794Z,4.53
2022-08-11T06:04:39.316Z,3.60
2022-08-11T06:07:30.304Z,3.90
2022-08-11T06:10:37.423Z,4.20
2022-08-11T06:13:25.008Z,4.50
2022-08-11T06:16:14.226Z,4.13
2022-08-11T06:19:00.234Z,4.25
2022-08-11T06:21:47.878Z,4.32
2022-08-11T06:24:35.529Z,4.47
2022-08-11T06:27:28.707Z,3.60
2022-08-11T06:30:14.480Z,3.97
2022-08-11T06:33:01.543Z,4.00
2022-08-11T06:36:10.768Z,3.50
2022-08-11T06:39:23.465Z,4.00
2022-08-11T06:42:24.142Z,3.88
2022-08-11T06:45:28.559Z,4.30
2022-08-11T06:48:20.923Z,3.40
2022-08-11T06:51:14.534Z,3.83
2022-08-11T06:54:04.858Z,3.85
2022-08-11T06:57:29.329Z,3.72
2022-08-11T07:00:30.095Z,3.58
2022-08-11T07:03:20.869Z,3.60
2022-08-11T07:06:22.605Z,3.92
2022-08-11T07:10:00.171Z,3.67
2022-08-11T07:13:06.733Z,3.17
2022-08-11T07:16:12.064Z,3.38
2022-08-11T07:19:25.056Z,3.13
2022-08-11T07:22:30.469Z,3.20
2022-08-11T07:25:35.774Z,3.00
2022-08-11T07:28:49.827Z,3.22
2022-08-11T07:31:42.034Z,2.45
2022-08-11T07:34:40.387Z,3.30
2022-08-11T07:37:29.069Z,2.90
2022-08-11T07:40:19.283Z,2.85
2022-08-11T07:43:06.998Z,2.85
2022-08-11T07:46:11.427Z,3.20
2022-08-11T07:49:16.596Z,2.60
2022-08-11T07:52:21.295Z,3.13
2022-08-11T07:55:17.014Z,3.25
2022-08-11T07:58:21.842Z,2.80
2022-08-11T08:01:31.463Z,3.10
2022-08-11T08:04:37.599Z,2.60
2022-08-11T08:07:42.576Z,2.75
2022-08-11T08:10:49.888Z,3.35
2022-08-11T08:13:55.451Z,2.45
2022-08-11T08:17:00.971Z,2.67
2022-08-11T08:19:48.696Z,2.30
2022-08-11T08:22:39.050Z,2.10
2022-08-11T08:25:34.221Z,2.42
2022-08-11T08:28:20.579Z,2.33
2022-08-11T08:31:06.273Z,2.20
2022-08-11T08:33:52.641Z,2.00
2022-08-11T08:36:39.895Z,2.58
2022-08-11T08:39:25.355Z,2.15
2022-08-11T08:42:12.460Z,2.25
2022-08-11T08:45:10.663Z,2.08
2022-08-11T08:48:01.674Z,2.35
2022-08-11T08:51:16.316Z,2.22
2022-08-11T08:54:20.235Z,2.17
2022-08-11T08:57:07.871Z,2.25
2022-08-11T08:59:54.066Z,2.35
2022-08-11T09:02:39.851Z,2.30
2022-08-11T09:05:27.289Z,2.28
2022-08-11T09:08:13.298Z,2.13
2022-08-11T09:11:18.771Z,2.20
2022-08-11T09:14:07.546Z,2.55
2022-08-11T09:16:55.742Z,2.30
2022-08-11T09:19:41.676Z,2.55
2022-08-11T09:22:57.422Z,2.30
2022-08-11T09:26:16.713Z,2.13
2022-08-11T09:29:04.502Z,2.20
2022-08-11T09:31:52.369Z,2.15
2022-08-11T09:34:39.133Z,2.25
2022-08-11T09:37:55.253Z,2.30
2022-08-11T09:40:44.959Z,2.10
2022-08-11T09:44:04.271Z,2.35
2022-08-11T09:46:52.317Z,2.13
2022-08-11T09:49:44.454Z,2.53
2022-08-11T09:52:35.702Z,2.58
2022-08-11T09:55:21.426Z,2.60
2022-08-11T09:58:42.469Z,2.50
2022-08-11T10:01:30.711Z,2.35
2022-08-11T10:04:24.870Z,2.35
2022-08-11T10:07:14.554Z,2.53
2022-08-11T10:10:02.672Z,2.10
2022-08-11T10:12:52.170Z,2.05
2022-08-11T10:15:38.675Z,2.28
2022-08-11T10:18:49.197Z,2.20
2022-08-11T10:22:07.425Z,2.10
2022-08-11T10:25:12.233Z,2.30
2022-08-11T10:28:28.530Z,2.58
2022-08-11T10:31:57.594Z,2.38
2022-08-11T10:34:49.528Z,2.40
2022-08-11T10:38:06.368Z,2.47
2022-08-11T10:41:07.498Z,2.72
2022-08-11T10:44:01.896Z,2.15
2022-08-11T10:47:08.866Z,2.15
2022-08-11T10:50:14.475Z,2.80
2022-08-11T10:53:20.049Z,2.28
2022-08-11T10:56:25.294Z,2.45
2022-08-11T10:59:11.007Z,2.20
2022-08-11T11:01:59.048Z,2.20
2022-08-11T11:04:59.375Z,2.40
2022-08-11T11:08:32.675Z,2.17
2022-08-11T11:11:19.185Z,2.60
2022-08-11T11:14:23.288Z,2.22
2022-08-11T11:17:26.151Z,2.10
2022-08-11T11:20:36.335Z,2.55
2022-08-11T11:23:41.725Z,2.22
2022-08-11T11:26:52.940Z,2.10
2022-08-11T11:29:50.686Z,2.30
2022-08-11T11:32:35.759Z,2.40
2022-08-11T11:35:39.350Z,2.30
2022-08-11T11:38:25.205Z,2.05
2022-08-11T11:41:26.072Z,2.42
2022-08-11T11:44:13.778Z,2.03
2022-08-11T11:47:01.006Z,2.33
2022-08-11T11:49:48.574Z,2.03
2022-08-11T11:52:35.710Z,2.35
2022-08-11T11:55:23.679Z,3.15
2022-08-11T11:58:28.434Z,2.55
2022-08-11T12:01:19.709Z,2.30
2022-08-11T12:04:06.655Z,2.47
2022-08-11T12:07:13.071Z,2.53
2022-08-11T12:09:59.464Z,2.50
2022-08-11T12:13:04.060Z,2.55
2022-08-11T12:16:31.490Z,2.92
2022-08-11T12:18:59.898Z,2.58
2022-08-11T12:22:04.845Z,2.22
2022-08-11T12:25:09.154Z,2.33
2022-08-11T12:27:55.922Z,2.30
2022-08-11T12:33:34.124Z,2.30
2022-08-11T12:36:21.721Z,2.75
2022-08-11T12:39:22.998Z,2.50
2022-08-11T12:42:31.984Z,2.67
2022-08-11T12:45:27.799Z,2.42
2022-08-11T12:48:58.639Z,2.88
2022-08-11T12:52:11.572Z,3.03
2022-08-11T12:55:07.544Z,2.95
2022-08-11T12:58:14.947Z,2.40
2022-08-11T13:01:19.037Z,2.60
2022-08-11T13:04:24.232Z,2.90
2022-08-11T13:07:10.276Z,3.00
2022-08-11T13:09:57.426Z,2.80
2022-08-11T13:12:49.016Z,2.78
2022-08-11T13:15:36.485Z,2.60
2022-08-11T13:18:23.324Z,2.53
2022-08-11T13:21:20.663Z,2.75
2022-08-11T13:24:06.478Z,2.92
2022-08-11T13:26:52.389Z,2.70
2022-08-11T13:29:41.505Z,2.78
2022-08-11T13:32:28.185Z,2.65
2022-08-11T13:35:17.878Z,2.63
2022-08-11T13:38:27.110Z,3.15
2022-08-11T13:41:30.730Z,3.00
2022-08-11T13:44:23.197Z,2.70
2022-08-11T13:47:15.155Z,2.58
2022-08-11T13:50:01.374Z,2.60
2022-08-11T13:52:53.115Z,2.55
2022-08-11T13:55:51.614Z,2.70
2022-08-11T13:58:38.768Z,2.97
2022-08-11T14:02:22.510Z,2.78
2022-08-11T14:04:44.058Z,2.25
2022-08-11T14:07:39.196Z,2.50
2022-08-11T14:10:30.124Z,2.85
2022-08-11T14:13:42.647Z,2.70
2022-08-11T14:16:41.879Z,2.55
2022-08-11T14:19:29.218Z,2.80
2022-08-11T14:22:16.682Z,2.55
2022-08-11T14:25:02.798Z,2.42
2022-08-11T14:28:30.498Z,2.67
2022-08-11T14:30:58.973Z,2.75
2022-08-11T14:34:00.883Z,2.75
2022-08-11T14:36:52.239Z,2.45
2022-08-11T14:39:47.298Z,2.40
2022-08-11T14:42:52.026Z,2.50
2022-08-11T14:45:58.746Z,2.17
2022-08-11T14:48:45.434Z,2.60
2022-08-11T14:51:32.805Z,2.20
2022-08-11T14:54:41.039Z,2.50
2022-08-11T14:58:04.524Z,2.80
2022-08-11T15:00:35.324Z,2.55
2022-08-11T15:03:25.014Z,2.10
2022-08-11T15:06:13.145Z,2.28
2022-08-11T15:08:58.809Z,2.22
2022-08-11T15:12:03.123Z,2.38
2022-08-11T15:15:08.875Z,2.70
2022-08-11T15:17:57.845Z,2.45
2022-08-11T15:21:02.818Z,2.33
2022-08-11T15:24:06.919Z,2.38
2022-08-11T15:27:12.466Z,2.20
2022-08-11T15:30:33.419Z,2.30
2022-08-11T15:33:38.920Z,2.40
2022-08-11T15:36:44.406Z,2.50
2022-08-11T15:39:58.524Z,2.13
2022-08-11T15:43:48.198Z,2.20
2022-08-11T15:46:47.287Z,2.17
2022-08-11T15:50:11.422Z,2.10
2022-08-11T15:52:53.246Z,2.28
2022-08-11T15:55:39.224Z,2.40
2022-08-11T15:58:46.285Z,2.25
2022-08-11T16:02:16.115Z,2.50
2022-08-11T16:05:05.935Z,2.30
2022-08-11T16:07:53.622Z,2.60
2022-08-11T16:10:44.819Z,2.13
2022-08-11T16:13:32.591Z,1.95
2022-08-11T16:16:18.711Z,2.42
2022-08-11T16:19:05.732Z,2.35
2022-08-11T16:21:53.267Z,2.38
2022-08-11T16:26:30.390Z,2.38
2022-08-11T16:28:00.098Z,2.15
2022-08-11T16:30:46.780Z,1.95
2022-08-11T16:33:49.551Z,2.05
2022-08-11T16:36:55.139Z,2.20
2022-08-11T16:39:41.873Z,2.17
2022-08-11T16:43:04.402Z,2.30
2022-08-11T16:46:14.605Z,2.40
2022-08-11T16:49:04.295Z,2.50
2022-08-11T16:51:49.439Z,2.70
2022-08-11T16:54:35.839Z,2.38
2022-08-11T16:57:43.095Z,2.17
2022-08-11T17:00:29.341Z,2.35
2022-08-11T17:03:54.348Z,1.90
2022-08-11T17:07:02.374Z,2.45
2022-08-11T17:10:50.918Z,2.25
2022-08-11T17:13:44.545Z,2.45
2022-08-11T17:16:37.438Z,2.28
2022-08-11T17:20:43.239Z,2.60
2022-08-11T17:22:50.200Z,2.30
2022-08-11T17:26:03.706Z,1.95
2022-08-11T17:28:43.052Z,2.47
2022-08-11T17:31:48.124Z,2.30
2022-08-11T17:34:53.058Z,2.45
2022-08-11T17:37:39.429Z,2.30
2022-08-11T17:40:26.027Z,2.50
2022-08-11T17:43:29.875Z,2.53
2022-08-11T17:46:35.012Z,2.10
2022-08-11T17:49:20.994Z,2.28
2022-08-11T17:52:26.086Z,7.63
2022-08-11T17:55:51.805Z,2.90
2022-08-11T17:58:56.917Z,3.00
2022-08-11T18:01:44.900Z,2.80
2022-08-11T18:04:35.440Z,2.13
2022-08-11T18:07:42.122Z,2.20
2022-08-11T18:10:48.803Z,2.28
2022-08-11T18:13:56.194Z,2.33
2022-08-11T18:17:03.907Z,3.45
2022-08-11T18:20:10.667Z,3.40
2022-08-11T18:23:16.726Z,2.90
2022-08-11T18:26:23.547Z,2.35
2022-08-11T18:29:30.309Z,2.47
2022-08-11T18:32:49.967Z,2.50
2022-08-11T18:35:55.557Z,2.22
2022-08-11T18:39:00.829Z,2.28
2022-08-11T18:42:06.280Z,2.13
2022-08-11T18:45:11.721Z,2.30
2022-08-11T18:48:22.446Z,2.65
2022-08-11T18:51:36.666Z,2.40
2022-08-11T18:54:44.412Z,2.15
2022-08-11T18:57:50.109Z,2.22
2022-08-11T19:01:00.222Z,2.25
2022-08-11T19:04:11.699Z,2.55
2022-08-11T19:07:22.352Z,2.25
2022-08-11T19:10:27.905Z,2.22
2022-08-11T19:13:32.332Z,2.40
2022-08-11T19:16:38.692Z,2.35
2022-08-11T19:19:47.749Z,2.47
2022-08-11T19:22:53.295Z,2.17
2022-08-11T19:25:57.816Z,2.65
2022-08-11T19:29:06.438Z,2.70
2022-08-11T19:32:12.471Z,2.65
2022-08-11T19:35:18.445Z,2.90
2022-08-11T19:38:23.187Z,2.70
2022-08-11T19:41:51.873Z,2.15
2022-08-11T19:44:53.562Z,2.42
2022-08-11T19:48:20.796Z,2.90
2022-08-11T19:51:23.912Z,3.05
2022-08-11T19:54:29.325Z,2.75
2022-08-11T19:57:39.706Z,3.10
2022-08-11T20:00:44.749Z,3.17
2022-08-11T20:03:48.591Z,3.47
2022-08-11T20:06:55.132Z,3.20
2022-08-11T20:10:05.766Z,3.83
2022-08-11T20:13:12.599Z,3.53
2022-08-11T20:16:28.282Z,3.65
2022-08-11T20:19:54.693Z,3.08
2022-08-11T20:22:59.231Z,3.55
2022-08-11T20:26:27.820Z,2.90
2022-08-11T20:29:29.174Z,3.30
2022-08-11T20:32:34.828Z,3.70
2022-08-11T20:35:40.239Z,2.75
2022-08-11T20:38:48.607Z,2.72
2022-08-11T20:41:58.768Z,2.63
2022-08-11T20:45:04.477Z,2.75
2022-08-11T20:48:10.094Z,3.25
2022-08-11T20:51:20.172Z,2.83
2022-08-11T20:54:42.954Z,3.10
2022-08-11T20:57:59.159Z,2.92
2022-08-11T21:01:08.317Z,3.20
2022-08-11T21:04:24.512Z,3.47
2022-08-11T21:07:29.307Z,3.50
2022-08-11T21:10:33.690Z,3.40
2022-08-11T21:13:41.511Z,3.42
2022-08-11T21:16:52.966Z,3.63
2022-08-11T21:20:08.025Z,3.90
2022-08-11T21:23:23.397Z,2.90
2022-08-11T21:26:33.671Z,3.50
2022-08-11T21:29:38.755Z,3.35
2022-08-11T21:32:44.030Z,3.70
2022-08-11T21:35:48.982Z,3.47
2022-08-11T21:38:53.837Z,3.88
2022-08-11T21:41:59.487Z,3.85
2022-08-11T21:45:04.043Z,3.25
2022-08-11T21:48:09.641Z,3.55
2022-08-11T21:51:13.986Z,3.45
2022-08-11T21:54:19.359Z,3.80
2022-08-11T21:57:24.820Z,3.10
2022-08-11T22:00:29.312Z,3.28
2022-08-11T22:03:36.561Z,3.08
2022-08-11T22:06:55.260Z,3.03
2022-08-11T22:09:59.779Z,3.00
2022-08-11T22:13:04.256Z,3.17
2022-08-11T22:16:08.687Z,3.10
2022-08-11T22:19:13.259Z,2.90
2022-08-11T22:22:19.286Z,2.78
2022-08-11T22:25:38.280Z,3.33
2022-08-11T22:28:43.312Z,3.17
2022-08-11T22:31:49.584Z,2.72
2022-08-11T22:34:53.789Z,3.08
2022-08-11T22:37:59.331Z,3.70
2022-08-11T22:41:03.287Z,3.65
2022-08-11T22:44:07.274Z,4.28
2022-08-11T22:47:14.220Z,3.50
2022-08-11T22:50:25.689Z,3.58
2022-08-11T22:53:55.198Z,3.67
2022-08-11T22:56:54.918Z,3.58
2022-08-11T22:59:59.521Z,3.33
2022-08-11T23:03:04.699Z,3.30
2022-08-11T23:06:09.018Z,3.33
2022-08-11T23:09:15.286Z,3.42
2022-08-11T23:12:19.716Z,3.47
2022-08-11T23:15:24.771Z,3.47
2022-08-11T23:18:29.220Z,3.63
2022-08-11T23:21:34.384Z,3.67
2022-08-11T23:24:39.309Z,3.30
2022-08-11T23:27:45.873Z,3.70
2022-08-11T23:30:52.311Z,3.08
2022-08-11T23:34:00.647Z,3.22
2022-08-11T23:37:06.923Z,3.30
2022-08-11T23:40:11.093Z,3.33
2022-08-11T23:43:19.814Z,3.17
2022-08-11T23:46:24.492Z,3.42
2022-08-11T23:49:28.990Z,3.35
2022-08-11T23:52:34.543Z,3.50
2022-08-11T23:55:39.606Z,3.53
2022-08-11T23:58:43.607Z,3.67
